Pagina principale
METAR-TAF:

METAR-TAF

Aeroporti :

Aeroporto di Treviso-Sant'Angelo

Treviso, Italia

latitudine: 45-39N, longitudine: 012-11E, altezza: 18 m

Osservazione

Il bollettino è stato emesso 41 minuti fa, alle 09:50 UTC
Vento 8 kt da est/nord-est, variando fra nord e est
Temperature 23°C
Umidità 78%
Pressione 1007 hPa
Visibilità 10 km o più
Nubi sparse ad un'altezza di 2000 ft

METAR: LIPH 070950Z 06008KT 010V090 9999 SCT020 23/19 Q1007

Ora: 12:31 (10:31 UTC)

Previsione

Il bollettino è stato emesso 10 minuti fa, alle 10:21 UTC
Previsione valida dal 07 alle 10 UTC al 08 alle 06 UTC
Vento 5 kt da direzioni variabili
Visibilità 10 km o più
Nuvoloso ad un'altezza di 3000 ft
Temporaneamente
dal 07 alle 10 UTC al 07 alle 22 UTC
Visibilità: 3000 m
temporale, pioggia
Temporaneamente
dal 07 alle 22 UTC al 08 alle 06 UTC
Visibilità: 4000 m
rovesci di pioggia

TAF: LIPH 071021Z 0710/0806 VRB05KT 9999 BKN030 TEMPO 0710/0722 3000 TSRA TEMPO 0722/0806 4000 SHRA

Osservazioni e previsioni meteorologiche di più di 4000 aeroporti (messaggi METAR e TAF).

Le stazioni disponibili sono rappresentate dai dischi gialli e rossi sulla carta.

Puntare il mouse per vedere il nome della stazione.

Clicca sopra per visualizzare le osservazioni e previsioni meteorologiche.

Per cambiare la mappa : fare clic sui pulsanti verdi con una croce nera per ingrandire, il pulsante verde con un trattino per diminuire, o sulla freccia verde per le mappe adiacenti.


METAR-TAF: